sensor_id;sensor_type;location;lat;lon;timestamp;P1;durP1;ratioP1;P2;durP2;ratioP2
64678;SDS011;51094;53.864;27.676;2024-01-15T00:00:59;1.30;;;1.30;;
64678;SDS011;51094;53.864;27.676;2024-01-15T00:03:26;1.90;;;1.90;;
64678;SDS011;51094;53.864;27.676;2024-01-15T00:05:53;1.02;;;1.02;;
64678;SDS011;51094;53.864;27.676;2024-01-15T00:08:21;1.60;;;1.60;;
64678;SDS011;51094;53.864;27.676;2024-01-15T00:10:47;1.20;;;1.20;;
64678;SDS011;51094;53.864;27.676;2024-01-15T00:13:14;1.23;;;1.23;;
64678;SDS011;51094;53.864;27.676;2024-01-15T00:15:41;1.40;;;1.40;;
64678;SDS011;51094;53.864;27.676;2024-01-15T00:18:08;1.40;;;1.40;;
64678;SDS011;51094;53.864;27.676;2024-01-15T00:20:35;1.20;;;1.20;;
64678;SDS011;51094;53.864;27.676;2024-01-15T00:23:02;1.20;;;1.20;;
64678;SDS011;51094;53.864;27.676;2024-01-15T00:25:29;1.20;;;1.20;;
64678;SDS011;51094;53.864;27.676;2024-01-15T00:27:56;1.10;;;1.10;;
64678;SDS011;51094;53.864;27.676;2024-01-15T00:30:23;1.15;;;1.15;;
64678;SDS011;51094;53.864;27.676;2024-01-15T00:32:50;1.10;;;1.10;;
64678;SDS011;51094;53.864;27.676;2024-01-15T00:35:17;1.17;;;1.17;;
64678;SDS011;51094;53.864;27.676;2024-01-15T00:37:44;1.30;;;1.30;;
64678;SDS011;51094;53.864;27.676;2024-01-15T00:40:10;1.13;;;1.13;;
64678;SDS011;51094;53.864;27.676;2024-01-15T00:42:38;1.23;;;1.23;;
64678;SDS011;51094;53.864;27.676;2024-01-15T00:45:05;1.40;;;1.40;;
64678;SDS011;51094;53.864;27.676;2024-01-15T00:47:34;1.30;;;1.30;;
64678;SDS011;51094;53.864;27.676;2024-01-15T00:50:01;1.30;;;1.30;;
64678;SDS011;51094;53.864;27.676;2024-01-15T00:52:28;1.02;;;1.02;;
64678;SDS011;51094;53.864;27.676;2024-01-15T00:54:55;1.10;;;1.10;;
64678;SDS011;51094;53.864;27.676;2024-01-15T00:57:22;1.20;;;1.20;;
64678;SDS011;51094;53.864;27.676;2024-01-15T00:59:49;1.23;;;1.23;;
64678;SDS011;51094;53.864;27.676;2024-01-15T01:02:16;1.20;;;1.20;;
64678;SDS011;51094;53.864;27.676;2024-01-15T01:04:43;1.25;;;1.25;;
64678;SDS011;51094;53.864;27.676;2024-01-15T01:07:10;1.30;;;1.30;;
64678;SDS011;51094;53.864;27.676;2024-01-15T01:09:37;1.30;;;1.30;;
64678;SDS011;51094;53.864;27.676;2024-01-15T01:12:04;1.30;;;1.30;;
64678;SDS011;51094;53.864;27.676;2024-01-15T01:14:31;1.27;;;1.27;;
64678;SDS011;51094;53.864;27.676;2024-01-15T01:16:58;1.25;;;1.25;;
64678;SDS011;51094;53.864;27.676;2024-01-15T01:19:25;1.80;;;1.80;;
64678;SDS011;51094;53.864;27.676;2024-01-15T01:21:52;1.40;;;1.40;;
64678;SDS011;51094;53.864;27.676;2024-01-15T01:24:19;1.40;;;1.40;;
64678;SDS011;51094;53.864;27.676;2024-01-15T01:26:47;1.50;;;1.50;;
64678;SDS011;51094;53.864;27.676;2024-01-15T01:29:13;1.80;;;1.80;;
64678;SDS011;51094;53.864;27.676;2024-01-15T01:31:44;1.73;;;1.73;;
64678;SDS011;51094;53.864;27.676;2024-01-15T01:34:13;1.60;;;1.60;;
64678;SDS011;51094;53.864;27.676;2024-01-15T01:36:42;1.70;;;1.70;;
64678;SDS011;51094;53.864;27.676;2024-01-15T01:39:09;1.60;;;1.60;;
64678;SDS011;51094;53.864;27.676;2024-01-15T01:41:37;1.80;;;1.80;;
64678;SDS011;51094;53.864;27.676;2024-01-15T01:44:05;1.90;;;1.90;;
64678;SDS011;51094;53.864;27.676;2024-01-15T01:46:33;1.70;;;1.70;;
64678;SDS011;51094;53.864;27.676;2024-01-15T01:49:06;2.00;;;2.00;;
64678;SDS011;51094;53.864;27.676;2024-01-15T01:51:35;2.53;;;2.53;;
64678;SDS011;51094;53.864;27.676;2024-01-15T01:54:04;1.80;;;1.80;;
64678;SDS011;51094;53.864;27.676;2024-01-15T01:56:32;1.98;;;1.98;;
64678;SDS011;51094;53.864;27.676;2024-01-15T01:58:59;2.17;;;2.17;;
64678;SDS011;51094;53.864;27.676;2024-01-15T02:01:28;2.08;;;2.08;;
64678;SDS011;51094;53.864;27.676;2024-01-15T02:03:56;2.17;;;2.17;;
64678;SDS011;51094;53.864;27.676;2024-01-15T02:06:23;2.20;;;2.20;;
64678;SDS011;51094;53.864;27.676;2024-01-15T02:08:50;2.13;;;2.13;;
64678;SDS011;51094;53.864;27.676;2024-01-15T02:11:18;2.17;;;2.17;;
64678;SDS011;51094;53.864;27.676;2024-01-15T02:13:45;2.40;;;2.40;;
64678;SDS011;51094;53.864;27.676;2024-01-15T02:16:13;2.28;;;2.28;;
64678;SDS011;51094;53.864;27.676;2024-01-15T02:18:43;2.50;;;2.40;;
64678;SDS011;51094;53.864;27.676;2024-01-15T02:21:11;2.25;;;2.25;;
64678;SDS011;51094;53.864;27.676;2024-01-15T02:23:38;2.60;;;2.60;;
64678;SDS011;51094;53.864;27.676;2024-01-15T02:26:06;2.47;;;2.47;;
64678;SDS011;51094;53.864;27.676;2024-01-15T02:28:34;2.47;;;2.47;;
64678;SDS011;51094;53.864;27.676;2024-01-15T02:31:01;2.30;;;2.30;;
64678;SDS011;51094;53.864;27.676;2024-01-15T02:33:28;2.17;;;2.17;;
64678;SDS011;51094;53.864;27.676;2024-01-15T02:35:56;2.70;;;2.70;;
64678;SDS011;51094;53.864;27.676;2024-01-15T02:38:22;2.60;;;2.60;;
64678;SDS011;51094;53.864;27.676;2024-01-15T02:40:49;2.75;;;2.75;;
64678;SDS011;51094;53.864;27.676;2024-01-15T02:43:16;2.38;;;2.38;;
64678;SDS011;51094;53.864;27.676;2024-01-15T02:45:45;2.63;;;2.63;;
64678;SDS011;51094;53.864;27.676;2024-01-15T02:48:13;2.65;;;2.65;;
64678;SDS011;51094;53.864;27.676;2024-01-15T02:50:40;2.42;;;2.42;;
64678;SDS011;51094;53.864;27.676;2024-01-15T02:53:07;2.28;;;2.28;;
64678;SDS011;51094;53.864;27.676;2024-01-15T02:55:34;2.38;;;2.38;;
64678;SDS011;51094;53.864;27.676;2024-01-15T02:58:01;2.47;;;2.47;;
64678;SDS011;51094;53.864;27.676;2024-01-15T03:00:30;2.55;;;2.55;;
64678;SDS011;51094;53.864;27.676;2024-01-15T03:02:57;2.60;;;2.60;;
64678;SDS011;51094;53.864;27.676;2024-01-15T03:05:23;2.67;;;2.67;;
64678;SDS011;51094;53.864;27.676;2024-01-15T03:07:51;2.80;;;2.80;;
64678;SDS011;51094;53.864;27.676;2024-01-15T03:10:18;2.40;;;2.40;;
64678;SDS011;51094;53.864;27.676;2024-01-15T03:12:44;2.25;;;2.25;;
64678;SDS011;51094;53.864;27.676;2024-01-15T03:15:11;2.28;;;2.28;;
64678;SDS011;51094;53.864;27.676;2024-01-15T03:17:38;2.15;;;2.15;;
64678;SDS011;51094;53.864;27.676;2024-01-15T03:20:07;2.58;;;2.58;;
64678;SDS011;51094;53.864;27.676;2024-01-15T03:22:35;2.25;;;2.25;;
64678;SDS011;51094;53.864;27.676;2024-01-15T03:25:02;2.40;;;2.40;;
64678;SDS011;51094;53.864;27.676;2024-01-15T03:27:30;2.38;;;2.38;;
64678;SDS011;51094;53.864;27.676;2024-01-15T03:29:57;2.45;;;2.45;;
64678;SDS011;51094;53.864;27.676;2024-01-15T03:32:24;2.03;;;2.03;;
64678;SDS011;51094;53.864;27.676;2024-01-15T03:34:50;2.33;;;2.33;;
64678;SDS011;51094;53.864;27.676;2024-01-15T03:37:19;2.05;;;2.05;;
64678;SDS011;51094;53.864;27.676;2024-01-15T03:39:46;2.33;;;2.33;;
64678;SDS011;51094;53.864;27.676;2024-01-15T03:42:13;2.38;;;2.38;;
64678;SDS011;51094;53.864;27.676;2024-01-15T03:44:41;2.20;;;2.20;;
64678;SDS011;51094;53.864;27.676;2024-01-15T03:47:08;1.90;;;1.90;;
64678;SDS011;51094;53.864;27.676;2024-01-15T03:49:34;2.20;;;2.20;;
64678;SDS011;51094;53.864;27.676;2024-01-15T03:52:01;2.22;;;2.22;;
64678;SDS011;51094;53.864;27.676;2024-01-15T03:54:29;1.90;;;1.90;;
64678;SDS011;51094;53.864;27.676;2024-01-15T03:56:55;2.00;;;2.00;;
64678;SDS011;51094;53.864;27.676;2024-01-15T03:59:22;2.03;;;2.03;;
64678;SDS011;51094;53.864;27.676;2024-01-15T04:01:50;2.30;;;2.30;;
64678;SDS011;51094;53.864;27.676;2024-01-15T04:04:17;2.22;;;2.22;;
64678;SDS011;51094;53.864;27.676;2024-01-15T04:06:45;2.20;;;2.20;;
64678;SDS011;51094;53.864;27.676;2024-01-15T04:09:17;2.05;;;2.05;;
64678;SDS011;51094;53.864;27.676;2024-01-15T04:11:44;2.50;;;2.50;;
64678;SDS011;51094;53.864;27.676;2024-01-15T04:14:11;2.20;;;2.20;;
64678;SDS011;51094;53.864;27.676;2024-01-15T04:16:38;2.40;;;2.40;;
64678;SDS011;51094;53.864;27.676;2024-01-15T04:19:05;2.05;;;2.05;;
64678;SDS011;51094;53.864;27.676;2024-01-15T04:21:33;2.42;;;2.42;;
64678;SDS011;51094;53.864;27.676;2024-01-15T04:24:00;2.40;;;2.40;;
64678;SDS011;51094;53.864;27.676;2024-01-15T04:26:26;2.20;;;2.20;;
64678;SDS011;51094;53.864;27.676;2024-01-15T04:28:59;2.20;;;2.20;;
64678;SDS011;51094;53.864;27.676;2024-01-15T04:31:26;2.80;;;2.70;;
64678;SDS011;51094;53.864;27.676;2024-01-15T04:33:56;2.35;;;2.35;;
64678;SDS011;51094;53.864;27.676;2024-01-15T04:36:23;2.53;;;2.53;;
64678;SDS011;51094;53.864;27.676;2024-01-15T04:38:50;2.80;;;2.80;;
64678;SDS011;51094;53.864;27.676;2024-01-15T04:41:17;2.28;;;2.28;;
64678;SDS011;51094;53.864;27.676;2024-01-15T04:43:44;2.15;;;2.15;;
64678;SDS011;51094;53.864;27.676;2024-01-15T04:46:11;2.33;;;2.33;;
64678;SDS011;51094;53.864;27.676;2024-01-15T04:48:38;2.47;;;2.38;;
64678;SDS011;51094;53.864;27.676;2024-01-15T04:51:05;2.58;;;2.58;;
64678;SDS011;51094;53.864;27.676;2024-01-15T04:53:34;2.47;;;2.47;;
64678;SDS011;51094;53.864;27.676;2024-01-15T04:56:01;2.67;;;2.65;;
64678;SDS011;51094;53.864;27.676;2024-01-15T04:58:28;2.63;;;2.63;;
64678;SDS011;51094;53.864;27.676;2024-01-15T05:00:55;2.72;;;2.72;;
64678;SDS011;51094;53.864;27.676;2024-01-15T05:03:23;2.58;;;2.58;;
64678;SDS011;51094;53.864;27.676;2024-01-15T05:05:50;2.70;;;2.70;;
64678;SDS011;51094;53.864;27.676;2024-01-15T05:08:17;2.72;;;2.67;;
64678;SDS011;51094;53.864;27.676;2024-01-15T05:10:44;2.63;;;2.63;;
64678;SDS011;51094;53.864;27.676;2024-01-15T05:13:11;2.72;;;2.65;;
64678;SDS011;51094;53.864;27.676;2024-01-15T05:15:38;2.70;;;2.70;;
64678;SDS011;51094;53.864;27.676;2024-01-15T05:18:06;2.55;;;2.55;;
64678;SDS011;51094;53.864;27.676;2024-01-15T05:20:33;2.58;;;2.58;;
64678;SDS011;51094;53.864;27.676;2024-01-15T05:23:03;2.88;;;2.88;;
64678;SDS011;51094;53.864;27.676;2024-01-15T05:25:30;2.50;;;2.50;;
64678;SDS011;51094;53.864;27.676;2024-01-15T05:27:57;2.67;;;2.67;;
64678;SDS011;51094;53.864;27.676;2024-01-15T05:30:23;3.13;;;3.10;;
64678;SDS011;51094;53.864;27.676;2024-01-15T05:32:51;3.03;;;3.03;;
64678;SDS011;51094;53.864;27.676;2024-01-15T05:35:18;3.08;;;3.08;;
64678;SDS011;51094;53.864;27.676;2024-01-15T05:37:45;3.38;;;3.38;;
64678;SDS011;51094;53.864;27.676;2024-01-15T05:40:12;2.97;;;2.92;;
64678;SDS011;51094;53.864;27.676;2024-01-15T05:42:40;3.70;;;3.60;;
64678;SDS011;51094;53.864;27.676;2024-01-15T05:45:08;3.33;;;3.22;;
64678;SDS011;51094;53.864;27.676;2024-01-15T05:47:36;3.20;;;3.20;;
64678;SDS011;51094;53.864;27.676;2024-01-15T05:50:03;3.25;;;3.25;;
64678;SDS011;51094;53.864;27.676;2024-01-15T05:52:31;3.05;;;3.05;;
64678;SDS011;51094;53.864;27.676;2024-01-15T05:54:58;3.50;;;3.50;;
64678;SDS011;51094;53.864;27.676;2024-01-15T05:57:25;3.80;;;3.70;;
64678;SDS011;51094;53.864;27.676;2024-01-15T05:59:52;3.55;;;3.45;;
64678;SDS011;51094;53.864;27.676;2024-01-15T06:02:19;4.25;;;4.15;;
64678;SDS011;51094;53.864;27.676;2024-01-15T06:04:46;4.10;;;4.00;;
64678;SDS011;51094;53.864;27.676;2024-01-15T06:07:13;4.03;;;4.00;;
64678;SDS011;51094;53.864;27.676;2024-01-15T06:09:41;3.88;;;3.78;;
64678;SDS011;51094;53.864;27.676;2024-01-15T06:12:07;4.38;;;4.28;;
64678;SDS011;51094;53.864;27.676;2024-01-15T06:14:35;4.05;;;3.95;;
64678;SDS011;51094;53.864;27.676;2024-01-15T06:17:02;4.00;;;3.95;;
64678;SDS011;51094;53.864;27.676;2024-01-15T06:19:29;3.72;;;3.63;;
64678;SDS011;51094;53.864;27.676;2024-01-15T06:21:56;3.88;;;3.78;;
64678;SDS011;51094;53.864;27.676;2024-01-15T06:24:23;3.90;;;3.83;;
64678;SDS011;51094;53.864;27.676;2024-01-15T06:26:50;4.00;;;3.90;;
64678;SDS011;51094;53.864;27.676;2024-01-15T06:29:18;4.45;;;4.35;;
64678;SDS011;51094;53.864;27.676;2024-01-15T06:31:45;4.20;;;4.10;;
64678;SDS011;51094;53.864;27.676;2024-01-15T06:34:12;4.20;;;4.10;;
64678;SDS011;51094;53.864;27.676;2024-01-15T06:36:39;4.47;;;4.38;;
64678;SDS011;51094;53.864;27.676;2024-01-15T06:39:06;4.30;;;4.20;;
64678;SDS011;51094;53.864;27.676;2024-01-15T06:41:34;4.53;;;4.43;;
64678;SDS011;51094;53.864;27.676;2024-01-15T06:44:01;4.45;;;4.35;;
64678;SDS011;51094;53.864;27.676;2024-01-15T06:46:28;4.50;;;4.40;;
64678;SDS011;51094;53.864;27.676;2024-01-15T06:48:55;4.63;;;4.53;;
64678;SDS011;51094;53.864;27.676;2024-01-15T06:51:22;4.57;;;4.47;;
64678;SDS011;51094;53.864;27.676;2024-01-15T06:53:49;4.22;;;4.13;;
64678;SDS011;51094;53.864;27.676;2024-01-15T06:56:16;4.50;;;4.40;;
64678;SDS011;51094;53.864;27.676;2024-01-15T06:58:43;4.47;;;4.38;;
64678;SDS011;51094;53.864;27.676;2024-01-15T07:01:10;4.90;;;4.80;;
64678;SDS011;51094;53.864;27.676;2024-01-15T07:03:37;4.55;;;4.45;;
64678;SDS011;51094;53.864;27.676;2024-01-15T07:06:04;4.32;;;4.22;;
64678;SDS011;51094;53.864;27.676;2024-01-15T07:08:32;4.70;;;4.60;;
64678;SDS011;51094;53.864;27.676;2024-01-15T07:10:58;4.47;;;4.38;;
64678;SDS011;51094;53.864;27.676;2024-01-15T07:13:25;4.60;;;4.50;;
64678;SDS011;51094;53.864;27.676;2024-01-15T07:15:52;4.47;;;4.38;;
64678;SDS011;51094;53.864;27.676;2024-01-15T07:18:19;3.97;;;3.88;;
64678;SDS011;51094;53.864;27.676;2024-01-15T07:20:46;4.00;;;3.90;;
64678;SDS011;51094;53.864;27.676;2024-01-15T07:23:14;4.45;;;4.35;;
64678;SDS011;51094;53.864;27.676;2024-01-15T07:25:41;4.32;;;4.22;;
64678;SDS011;51094;53.864;27.676;2024-01-15T07:28:09;4.07;;;4.05;;
64678;SDS011;51094;53.864;27.676;2024-01-15T07:30:38;4.43;;;4.32;;
64678;SDS011;51094;53.864;27.676;2024-01-15T07:33:05;4.40;;;4.30;;
64678;SDS011;51094;53.864;27.676;2024-01-15T07:35:32;4.30;;;4.30;;
64678;SDS011;51094;53.864;27.676;2024-01-15T07:37:59;4.50;;;4.40;;
64678;SDS011;51094;53.864;27.676;2024-01-15T07:40:26;4.32;;;4.22;;
64678;SDS011;51094;53.864;27.676;2024-01-15T07:42:53;4.28;;;4.18;;
64678;SDS011;51094;53.864;27.676;2024-01-15T07:45:21;4.40;;;4.30;;
64678;SDS011;51094;53.864;27.676;2024-01-15T07:47:48;4.53;;;4.43;;
64678;SDS011;51094;53.864;27.676;2024-01-15T07:50:15;4.32;;;4.22;;
64678;SDS011;51094;53.864;27.676;2024-01-15T07:52:43;4.38;;;4.28;;
64678;SDS011;51094;53.864;27.676;2024-01-15T07:55:09;4.80;;;4.70;;
64678;SDS011;51094;53.864;27.676;2024-01-15T07:57:37;4.72;;;4.63;;
64678;SDS011;51094;53.864;27.676;2024-01-15T08:00:04;4.53;;;4.43;;
64678;SDS011;51094;53.864;27.676;2024-01-15T08:02:32;5.00;;;4.90;;
64678;SDS011;51094;53.864;27.676;2024-01-15T08:05:03;4.10;;;4.10;;
64678;SDS011;51094;53.864;27.676;2024-01-15T08:07:30;4.53;;;4.43;;
64678;SDS011;51094;53.864;27.676;2024-01-15T08:09:57;4.65;;;4.55;;
64678;SDS011;51094;53.864;27.676;2024-01-15T08:12:25;4.75;;;4.65;;
64678;SDS011;51094;53.864;27.676;2024-01-15T08:14:52;4.13;;;4.03;;
64678;SDS011;51094;53.864;27.676;2024-01-15T08:17:19;4.72;;;4.63;;
64678;SDS011;51094;53.864;27.676;2024-01-15T08:19:46;4.22;;;4.13;;
64678;SDS011;51094;53.864;27.676;2024-01-15T08:22:13;3.90;;;3.90;;
64678;SDS011;51094;53.864;27.676;2024-01-15T08:24:40;4.03;;;3.92;;
64678;SDS011;51094;53.864;27.676;2024-01-15T08:27:07;4.05;;;4.05;;
64678;SDS011;51094;53.864;27.676;2024-01-15T08:29:35;4.15;;;4.05;;
64678;SDS011;51094;53.864;27.676;2024-01-15T08:32:02;3.80;;;3.70;;
64678;SDS011;51094;53.864;27.676;2024-01-15T08:34:29;4.00;;;4.00;;
64678;SDS011;51094;53.864;27.676;2024-01-15T08:36:57;4.30;;;4.20;;
64678;SDS011;51094;53.864;27.676;2024-01-15T08:39:27;4.15;;;4.05;;
64678;SDS011;51094;53.864;27.676;2024-01-15T08:41:54;3.70;;;3.60;;
64678;SDS011;51094;53.864;27.676;2024-01-15T08:44:21;4.00;;;3.90;;
64678;SDS011;51094;53.864;27.676;2024-01-15T08:46:48;4.00;;;3.90;;
64678;SDS011;51094;53.864;27.676;2024-01-15T08:49:15;4.22;;;4.13;;
64678;SDS011;51094;53.864;27.676;2024-01-15T08:51:42;4.03;;;4.00;;
64678;SDS011;51094;53.864;27.676;2024-01-15T08:54:09;3.92;;;3.92;;
64678;SDS011;51094;53.864;27.676;2024-01-15T08:56:36;3.80;;;3.70;;
64678;SDS011;51094;53.864;27.676;2024-01-15T08:59:03;3.78;;;3.78;;
64678;SDS011;51094;53.864;27.676;2024-01-15T09:01:30;4.28;;;4.18;;
64678;SDS011;51094;53.864;27.676;2024-01-15T09:03:57;3.90;;;3.90;;
64678;SDS011;51094;53.864;27.676;2024-01-15T09:06:24;4.07;;;4.07;;
64678;SDS011;51094;53.864;27.676;2024-01-15T09:08:52;3.97;;;3.97;;
64678;SDS011;51094;53.864;27.676;2024-01-15T09:11:19;4.47;;;4.38;;
64678;SDS011;51094;53.864;27.676;2024-01-15T09:13:46;4.07;;;3.97;;
64678;SDS011;51094;53.864;27.676;2024-01-15T09:16:15;4.00;;;3.90;;
64678;SDS011;51094;53.864;27.676;2024-01-15T09:18:42;4.03;;;4.03;;
64678;SDS011;51094;53.864;27.676;2024-01-15T09:21:09;4.00;;;4.00;;
64678;SDS011;51094;53.864;27.676;2024-01-15T09:23:36;4.07;;;3.97;;
64678;SDS011;51094;53.864;27.676;2024-01-15T09:26:04;4.72;;;4.63;;
64678;SDS011;51094;53.864;27.676;2024-01-15T09:28:31;4.60;;;4.50;;
64678;SDS011;51094;53.864;27.676;2024-01-15T09:30:58;4.47;;;4.38;;
64678;SDS011;51094;53.864;27.676;2024-01-15T09:33:25;5.00;;;4.90;;
64678;SDS011;51094;53.864;27.676;2024-01-15T09:35:53;5.30;;;5.20;;
64678;SDS011;51094;53.864;27.676;2024-01-15T09:38:20;5.05;;;4.95;;
64678;SDS011;51094;53.864;27.676;2024-01-15T09:40:47;4.78;;;4.68;;
64678;SDS011;51094;53.864;27.676;2024-01-15T09:43:14;5.00;;;4.90;;
64678;SDS011;51094;53.864;27.676;2024-01-15T09:45:42;5.03;;;4.93;;
64678;SDS011;51094;53.864;27.676;2024-01-15T09:48:10;5.15;;;5.05;;
64678;SDS011;51094;53.864;27.676;2024-01-15T09:50:38;5.55;;;5.45;;
64678;SDS011;51094;53.864;27.676;2024-01-15T09:53:05;5.10;;;5.00;;
64678;SDS011;51094;53.864;27.676;2024-01-15T09:55:32;5.25;;;5.15;;
64678;SDS011;51094;53.864;27.676;2024-01-15T09:58:00;5.22;;;5.13;;
64678;SDS011;51094;53.864;27.676;2024-01-15T10:00:28;5.57;;;5.47;;
64678;SDS011;51094;53.864;27.676;2024-01-15T10:02:58;5.33;;;5.23;;
64678;SDS011;51094;53.864;27.676;2024-01-15T10:05:26;5.35;;;5.25;;
64678;SDS011;51094;53.864;27.676;2024-01-15T10:07:54;6.15;;;6.05;;
64678;SDS011;51094;53.864;27.676;2024-01-15T10:10:23;5.38;;;5.28;;
64678;SDS011;51094;53.864;27.676;2024-01-15T10:12:50;6.18;;;6.07;;
64678;SDS011;51094;53.864;27.676;2024-01-15T10:15:17;5.68;;;5.57;;
64678;SDS011;51094;53.864;27.676;2024-01-15T10:17:44;6.00;;;5.90;;
64678;SDS011;51094;53.864;27.676;2024-01-15T10:20:12;5.55;;;5.45;;
64678;SDS011;51094;53.864;27.676;2024-01-15T10:22:42;6.03;;;5.88;;
64678;SDS011;51094;53.864;27.676;2024-01-15T10:25:10;6.10;;;6.00;;
64678;SDS011;51094;53.864;27.676;2024-01-15T10:27:38;5.97;;;5.88;;
64678;SDS011;51094;53.864;27.676;2024-01-15T10:30:05;6.20;;;6.10;;
64678;SDS011;51094;53.864;27.676;2024-01-15T10:32:32;6.18;;;6.07;;
64678;SDS011;51094;53.864;27.676;2024-01-15T10:35:00;6.40;;;6.30;;
64678;SDS011;51094;53.864;27.676;2024-01-15T10:37:27;6.03;;;5.93;;
64678;SDS011;51094;53.864;27.676;2024-01-15T10:39:55;6.45;;;6.35;;
64678;SDS011;51094;53.864;27.676;2024-01-15T10:42:22;6.47;;;6.38;;
64678;SDS011;51094;53.864;27.676;2024-01-15T10:44:49;6.55;;;6.38;;
64678;SDS011;51094;53.864;27.676;2024-01-15T10:47:16;6.60;;;6.50;;
64678;SDS011;51094;53.864;27.676;2024-01-15T10:49:44;6.88;;;6.68;;
64678;SDS011;51094;53.864;27.676;2024-01-15T10:52:12;7.25;;;7.15;;
64678;SDS011;51094;53.864;27.676;2024-01-15T10:54:40;6.90;;;6.80;;
64678;SDS011;51094;53.864;27.676;2024-01-15T10:57:10;7.05;;;6.85;;
64678;SDS011;51094;53.864;27.676;2024-01-15T10:59:37;6.95;;;6.85;;
64678;SDS011;51094;53.864;27.676;2024-01-15T11:02:04;7.22;;;7.13;;
64678;SDS011;51094;53.864;27.676;2024-01-15T11:04:32;7.15;;;7.05;;
64678;SDS011;51094;53.864;27.676;2024-01-15T11:06:59;7.10;;;7.00;;
64678;SDS011;51094;53.864;27.676;2024-01-15T11:09:29;7.10;;;7.00;;
64678;SDS011;51094;53.864;27.676;2024-01-15T11:14:40;6.00;;;5.90;;
64678;SDS011;51094;53.864;27.676;2024-01-15T11:17:11;7.15;;;6.95;;
64678;SDS011;51094;53.864;27.676;2024-01-15T11:19:43;6.22;;;6.13;;
64678;SDS011;51094;53.864;27.676;2024-01-15T11:25:12;6.53;;;6.43;;
64678;SDS011;51094;53.864;27.676;2024-01-15T11:27:41;7.68;;;7.47;;
64678;SDS011;51094;53.864;27.676;2024-01-15T11:30:14;6.95;;;6.85;;
64678;SDS011;51094;53.864;27.676;2024-01-15T11:32:41;6.93;;;6.82;;
64678;SDS011;51094;53.864;27.676;2024-01-15T11:35:09;7.03;;;6.93;;
64678;SDS011;51094;53.864;27.676;2024-01-15T11:40:44;7.40;;;7.30;;
64678;SDS011;51094;53.864;27.676;2024-01-15T11:43:12;6.85;;;6.75;;
64678;SDS011;51094;53.864;27.676;2024-01-15T11:45:39;7.20;;;7.10;;
64678;SDS011;51094;53.864;27.676;2024-01-15T11:50:40;7.10;;;7.00;;
64678;SDS011;51094;53.864;27.676;2024-01-15T11:55:51;7.05;;;6.95;;
64678;SDS011;51094;53.864;27.676;2024-01-15T11:58:18;7.00;;;6.90;;
64678;SDS011;51094;53.864;27.676;2024-01-15T12:00:47;6.63;;;6.53;;
64678;SDS011;51094;53.864;27.676;2024-01-15T12:03:16;7.10;;;7.00;;
64678;SDS011;51094;53.864;27.676;2024-01-15T12:05:44;6.45;;;6.35;;
64678;SDS011;51094;53.864;27.676;2024-01-15T12:08:14;7.10;;;7.00;;
64678;SDS011;51094;53.864;27.676;2024-01-15T12:10:41;6.70;;;6.60;;
64678;SDS011;51094;53.864;27.676;2024-01-15T12:13:15;6.85;;;6.72;;
64678;SDS011;51094;53.864;27.676;2024-01-15T12:15:44;6.57;;;6.47;;
64678;SDS011;51094;53.864;27.676;2024-01-15T12:18:13;6.70;;;6.60;;
64678;SDS011;51094;53.864;27.676;2024-01-15T12:20:42;6.85;;;6.75;;
64678;SDS011;51094;53.864;27.676;2024-01-15T12:23:10;7.53;;;7.32;;
64678;SDS011;51094;53.864;27.676;2024-01-15T12:25:38;7.05;;;6.95;;
64678;SDS011;51094;53.864;27.676;2024-01-15T12:28:05;7.05;;;6.90;;
64678;SDS011;51094;53.864;27.676;2024-01-15T12:30:33;7.18;;;7.07;;
64678;SDS011;51094;53.864;27.676;2024-01-15T12:33:05;6.80;;;6.70;;
64678;SDS011;51094;53.864;27.676;2024-01-15T12:35:36;6.90;;;6.75;;
64678;SDS011;51094;53.864;27.676;2024-01-15T12:38:03;6.88;;;6.78;;
64678;SDS011;51094;53.864;27.676;2024-01-15T12:40:31;7.45;;;7.25;;
64678;SDS011;51094;53.864;27.676;2024-01-15T12:43:02;7.10;;;6.90;;
64678;SDS011;51094;53.864;27.676;2024-01-15T12:45:29;6.75;;;6.65;;
64678;SDS011;51094;53.864;27.676;2024-01-15T12:47:58;7.60;;;7.40;;
64678;SDS011;51094;53.864;27.676;2024-01-15T12:50:25;8.75;;;8.55;;
64678;SDS011;51094;53.864;27.676;2024-01-15T12:52:53;7.43;;;7.22;;
64678;SDS011;51094;53.864;27.676;2024-01-15T12:55:20;6.70;;;6.60;;
64678;SDS011;51094;53.864;27.676;2024-01-15T12:57:46;7.00;;;6.90;;
64678;SDS011;51094;53.864;27.676;2024-01-15T13:00:13;7.10;;;6.90;;
64678;SDS011;51094;53.864;27.676;2024-01-15T13:02:42;7.05;;;6.95;;
64678;SDS011;51094;53.864;27.676;2024-01-15T13:05:10;6.93;;;6.82;;
64678;SDS011;51094;53.864;27.676;2024-01-15T13:07:40;6.85;;;6.75;;
64678;SDS011;51094;53.864;27.676;2024-01-15T13:10:07;6.25;;;6.15;;
64678;SDS011;51094;53.864;27.676;2024-01-15T13:12:36;6.72;;;6.57;;
64678;SDS011;51094;53.864;27.676;2024-01-15T13:15:04;6.65;;;6.45;;
64678;SDS011;51094;53.864;27.676;2024-01-15T13:17:32;5.75;;;5.65;;
64678;SDS011;51094;53.864;27.676;2024-01-15T13:19:59;5.68;;;5.57;;
64678;SDS011;51094;53.864;27.676;2024-01-15T13:22:26;6.20;;;6.10;;
64678;SDS011;51094;53.864;27.676;2024-01-15T13:24:58;6.00;;;5.90;;
64678;SDS011;51094;53.864;27.676;2024-01-15T13:27:26;5.78;;;5.68;;
64678;SDS011;51094;53.864;27.676;2024-01-15T13:29:53;5.32;;;5.22;;
64678;SDS011;51094;53.864;27.676;2024-01-15T13:32:29;5.75;;;5.65;;
64678;SDS011;51094;53.864;27.676;2024-01-15T13:34:57;5.70;;;5.60;;
64678;SDS011;51094;53.864;27.676;2024-01-15T13:37:24;5.78;;;5.68;;
64678;SDS011;51094;53.864;27.676;2024-01-15T13:39:51;5.63;;;5.53;;
64678;SDS011;51094;53.864;27.676;2024-01-15T13:42:20;6.03;;;5.93;;
64678;SDS011;51094;53.864;27.676;2024-01-15T13:44:50;5.40;;;5.30;;
64678;SDS011;51094;53.864;27.676;2024-01-15T13:47:18;5.93;;;5.82;;
64678;SDS011;51094;53.864;27.676;2024-01-15T13:49:45;5.00;;;4.90;;
64678;SDS011;51094;53.864;27.676;2024-01-15T13:52:12;6.00;;;5.90;;
64678;SDS011;51094;53.864;27.676;2024-01-15T13:54:39;5.32;;;5.22;;
64678;SDS011;51094;53.864;27.676;2024-01-15T13:57:16;5.38;;;5.28;;
64678;SDS011;51094;53.864;27.676;2024-01-15T13:59:45;5.53;;;5.43;;
64678;SDS011;51094;53.864;27.676;2024-01-15T14:02:12;5.47;;;5.38;;
64678;SDS011;51094;53.864;27.676;2024-01-15T14:04:43;5.47;;;5.38;;
64678;SDS011;51094;53.864;27.676;2024-01-15T14:07:10;5.25;;;5.15;;
64678;SDS011;51094;53.864;27.676;2024-01-15T14:09:36;5.45;;;5.35;;
64678;SDS011;51094;53.864;27.676;2024-01-15T14:12:04;6.00;;;5.90;;
64678;SDS011;51094;53.864;27.676;2024-01-15T14:14:33;5.03;;;4.93;;
64678;SDS011;51094;53.864;27.676;2024-01-15T14:17:00;4.95;;;4.85;;
64678;SDS011;51094;53.864;27.676;2024-01-15T14:19:27;5.38;;;5.28;;
64678;SDS011;51094;53.864;27.676;2024-01-15T14:21:54;5.65;;;5.55;;
64678;SDS011;51094;53.864;27.676;2024-01-15T14:24:22;5.40;;;5.30;;
64678;SDS011;51094;53.864;27.676;2024-01-15T14:26:49;5.20;;;5.10;;
64678;SDS011;51094;53.864;27.676;2024-01-15T14:29:16;5.28;;;5.18;;
64678;SDS011;51094;53.864;27.676;2024-01-15T14:31:45;5.43;;;5.32;;
64678;SDS011;51094;53.864;27.676;2024-01-15T14:34:13;5.28;;;5.18;;
64678;SDS011;51094;53.864;27.676;2024-01-15T14:36:40;5.38;;;5.28;;
64678;SDS011;51094;53.864;27.676;2024-01-15T14:39:07;4.80;;;4.70;;
64678;SDS011;51094;53.864;27.676;2024-01-15T14:41:36;5.10;;;5.00;;
64678;SDS011;51094;53.864;27.676;2024-01-15T14:44:03;4.85;;;4.75;;
64678;SDS011;51094;53.864;27.676;2024-01-15T14:46:30;5.05;;;4.95;;
64678;SDS011;51094;53.864;27.676;2024-01-15T14:48:57;5.22;;;5.13;;